sensor_id;sensor_type;location;lat;lon;timestamp;P1;durP1;ratioP1;P2;durP2;ratioP2
76826;SDS011;65788;52.284;20.890;2023-12-20T00:02:03;8.20;;;5.70;;
76826;SDS011;65788;52.284;20.890;2023-12-20T00:04:30;7.60;;;5.00;;
76826;SDS011;65788;52.284;20.890;2023-12-20T00:06:59;7.50;;;5.40;;
76826;SDS011;65788;52.284;20.890;2023-12-20T00:09:26;8.80;;;6.00;;
76826;SDS011;65788;52.284;20.890;2023-12-20T00:11:52;8.10;;;5.40;;
76826;SDS011;65788;52.284;20.890;2023-12-20T00:14:19;8.00;;;5.40;;
76826;SDS011;65788;52.284;20.890;2023-12-20T00:16:47;7.20;;;5.10;;
76826;SDS011;65788;52.284;20.890;2023-12-20T00:19:14;7.50;;;5.10;;
76826;SDS011;65788;52.284;20.890;2023-12-20T00:21:41;9.10;;;5.70;;
76826;SDS011;65788;52.284;20.890;2023-12-20T00:24:08;9.30;;;5.20;;
76826;SDS011;65788;52.284;20.890;2023-12-20T00:26:35;7.50;;;4.70;;
76826;SDS011;65788;52.284;20.890;2023-12-20T00:29:02;7.10;;;5.00;;
76826;SDS011;65788;52.284;20.890;2023-12-20T00:31:29;10.40;;;5.90;;
76826;SDS011;65788;52.284;20.890;2023-12-20T00:33:56;8.30;;;5.40;;
76826;SDS011;65788;52.284;20.890;2023-12-20T00:36:26;7.00;;;4.80;;
76826;SDS011;65788;52.284;20.890;2023-12-20T00:38:53;8.00;;;5.30;;
76826;SDS011;65788;52.284;20.890;2023-12-20T00:41:20;8.40;;;5.40;;
76826;SDS011;65788;52.284;20.890;2023-12-20T00:43:48;9.10;;;4.90;;
76826;SDS011;65788;52.284;20.890;2023-12-20T00:46:15;7.50;;;4.90;;
76826;SDS011;65788;52.284;20.890;2023-12-20T00:48:43;6.80;;;4.40;;
76826;SDS011;65788;52.284;20.890;2023-12-20T00:51:12;9.80;;;4.70;;
76826;SDS011;65788;52.284;20.890;2023-12-20T00:53:39;8.80;;;4.80;;
76826;SDS011;65788;52.284;20.890;2023-12-20T00:56:06;7.10;;;5.70;;
76826;SDS011;65788;52.284;20.890;2023-12-20T00:58:33;7.90;;;4.90;;
76826;SDS011;65788;52.284;20.890;2023-12-20T01:01:02;7.30;;;4.90;;
76826;SDS011;65788;52.284;20.890;2023-12-20T01:03:29;7.10;;;4.60;;
76826;SDS011;65788;52.284;20.890;2023-12-20T01:05:56;9.20;;;4.80;;
76826;SDS011;65788;52.284;20.890;2023-12-20T01:08:23;9.30;;;4.60;;
76826;SDS011;65788;52.284;20.890;2023-12-20T01:10:50;7.80;;;4.50;;
76826;SDS011;65788;52.284;20.890;2023-12-20T01:13:17;6.90;;;4.40;;
76826;SDS011;65788;52.284;20.890;2023-12-20T01:15:44;7.10;;;4.40;;
76826;SDS011;65788;52.284;20.890;2023-12-20T01:18:11;6.60;;;4.60;;
76826;SDS011;65788;52.284;20.890;2023-12-20T01:20:38;8.00;;;4.50;;
76826;SDS011;65788;52.284;20.890;2023-12-20T01:23:05;7.90;;;4.50;;
76826;SDS011;65788;52.284;20.890;2023-12-20T01:25:35;7.30;;;4.70;;
76826;SDS011;65788;52.284;20.890;2023-12-20T01:28:02;7.50;;;4.50;;
76826;SDS011;65788;52.284;20.890;2023-12-20T01:30:29;8.10;;;4.50;;
76826;SDS011;65788;52.284;20.890;2023-12-20T01:32:56;6.90;;;4.50;;
76826;SDS011;65788;52.284;20.890;2023-12-20T01:35:23;8.70;;;5.10;;
76826;SDS011;65788;52.284;20.890;2023-12-20T01:37:50;6.10;;;4.00;;
76826;SDS011;65788;52.284;20.890;2023-12-20T01:40:17;7.30;;;4.50;;
76826;SDS011;65788;52.284;20.890;2023-12-20T01:45:13;7.20;;;4.60;;
76826;SDS011;65788;52.284;20.890;2023-12-20T01:47:40;8.00;;;4.20;;
76826;SDS011;65788;52.284;20.890;2023-12-20T01:50:08;6.30;;;4.20;;
76826;SDS011;65788;52.284;20.890;2023-12-20T01:52:35;7.20;;;4.40;;
76826;SDS011;65788;52.284;20.890;2023-12-20T01:55:03;5.80;;;3.80;;
76826;SDS011;65788;52.284;20.890;2023-12-20T01:57:37;7.30;;;4.20;;
76826;SDS011;65788;52.284;20.890;2023-12-20T02:00:04;6.30;;;4.30;;
76826;SDS011;65788;52.284;20.890;2023-12-20T02:02:36;6.00;;;4.40;;
76826;SDS011;65788;52.284;20.890;2023-12-20T02:05:06;6.40;;;3.90;;
76826;SDS011;65788;52.284;20.890;2023-12-20T02:07:34;7.80;;;3.90;;
76826;SDS011;65788;52.284;20.890;2023-12-20T02:10:05;6.50;;;4.00;;
76826;SDS011;65788;52.284;20.890;2023-12-20T02:12:35;6.10;;;3.90;;
76826;SDS011;65788;52.284;20.890;2023-12-20T02:15:05;5.90;;;4.00;;
76826;SDS011;65788;52.284;20.890;2023-12-20T02:17:33;6.50;;;4.00;;
76826;SDS011;65788;52.284;20.890;2023-12-20T02:20:00;5.60;;;3.80;;
76826;SDS011;65788;52.284;20.890;2023-12-20T02:22:29;5.00;;;3.60;;
76826;SDS011;65788;52.284;20.890;2023-12-20T02:24:57;5.20;;;3.70;;
76826;SDS011;65788;52.284;20.890;2023-12-20T02:27:24;5.60;;;3.50;;
76826;SDS011;65788;52.284;20.890;2023-12-20T02:29:51;7.20;;;3.80;;
76826;SDS011;65788;52.284;20.890;2023-12-20T02:32:18;6.00;;;3.80;;
76826;SDS011;65788;52.284;20.890;2023-12-20T02:34:47;5.80;;;3.60;;
76826;SDS011;65788;52.284;20.890;2023-12-20T02:37:14;5.80;;;3.70;;
76826;SDS011;65788;52.284;20.890;2023-12-20T02:39:42;4.90;;;3.60;;
76826;SDS011;65788;52.284;20.890;2023-12-20T02:42:11;6.10;;;3.50;;
76826;SDS011;65788;52.284;20.890;2023-12-20T02:44:38;6.10;;;3.90;;
76826;SDS011;65788;52.284;20.890;2023-12-20T02:47:05;5.50;;;3.50;;
76826;SDS011;65788;52.284;20.890;2023-12-20T02:49:32;7.90;;;3.20;;
76826;SDS011;65788;52.284;20.890;2023-12-20T02:51:58;5.80;;;3.30;;
76826;SDS011;65788;52.284;20.890;2023-12-20T02:54:25;5.30;;;3.60;;
76826;SDS011;65788;52.284;20.890;2023-12-20T02:56:52;5.10;;;3.40;;
76826;SDS011;65788;52.284;20.890;2023-12-20T02:59:19;5.00;;;3.30;;
76826;SDS011;65788;52.284;20.890;2023-12-20T03:01:46;5.40;;;3.60;;
76826;SDS011;65788;52.284;20.890;2023-12-20T03:04:13;4.70;;;3.20;;
76826;SDS011;65788;52.284;20.890;2023-12-20T03:06:42;5.10;;;3.30;;
76826;SDS011;65788;52.284;20.890;2023-12-20T03:09:09;4.70;;;3.30;;
76826;SDS011;65788;52.284;20.890;2023-12-20T03:11:37;5.50;;;3.20;;
76826;SDS011;65788;52.284;20.890;2023-12-20T03:14:04;4.80;;;3.30;;
76826;SDS011;65788;52.284;20.890;2023-12-20T03:16:31;4.50;;;3.00;;
76826;SDS011;65788;52.284;20.890;2023-12-20T03:18:59;5.00;;;3.10;;
76826;SDS011;65788;52.284;20.890;2023-12-20T03:21:26;5.10;;;3.10;;
76826;SDS011;65788;52.284;20.890;2023-12-20T03:23:53;4.60;;;3.20;;
76826;SDS011;65788;52.284;20.890;2023-12-20T03:26:20;4.60;;;3.10;;
76826;SDS011;65788;52.284;20.890;2023-12-20T03:28:48;5.00;;;3.10;;
76826;SDS011;65788;52.284;20.890;2023-12-20T03:31:15;4.00;;;2.70;;
76826;SDS011;65788;52.284;20.890;2023-12-20T03:33:42;4.80;;;3.00;;
76826;SDS011;65788;52.284;20.890;2023-12-20T03:36:09;5.10;;;3.20;;
76826;SDS011;65788;52.284;20.890;2023-12-20T03:38:36;5.10;;;3.00;;
76826;SDS011;65788;52.284;20.890;2023-12-20T03:41:03;4.60;;;2.70;;
76826;SDS011;65788;52.284;20.890;2023-12-20T03:43:31;5.20;;;3.00;;
76826;SDS011;65788;52.284;20.890;2023-12-20T03:45:58;5.10;;;3.10;;
76826;SDS011;65788;52.284;20.890;2023-12-20T03:50:53;4.40;;;2.80;;
76826;SDS011;65788;52.284;20.890;2023-12-20T03:53:20;4.60;;;2.80;;
76826;SDS011;65788;52.284;20.890;2023-12-20T03:55:47;4.20;;;3.00;;
76826;SDS011;65788;52.284;20.890;2023-12-20T03:58:14;5.10;;;3.00;;
76826;SDS011;65788;52.284;20.890;2023-12-20T04:00:41;4.90;;;2.90;;
76826;SDS011;65788;52.284;20.890;2023-12-20T04:03:08;4.40;;;2.90;;
76826;SDS011;65788;52.284;20.890;2023-12-20T04:05:35;5.10;;;2.90;;
76826;SDS011;65788;52.284;20.890;2023-12-20T04:08:02;5.70;;;2.70;;
76826;SDS011;65788;52.284;20.890;2023-12-20T04:10:30;3.90;;;2.80;;
76826;SDS011;65788;52.284;20.890;2023-12-20T04:12:57;4.50;;;2.60;;
76826;SDS011;65788;52.284;20.890;2023-12-20T04:15:24;4.60;;;2.80;;
76826;SDS011;65788;52.284;20.890;2023-12-20T04:17:51;3.80;;;2.40;;
76826;SDS011;65788;52.284;20.890;2023-12-20T04:20:18;4.60;;;2.90;;
76826;SDS011;65788;52.284;20.890;2023-12-20T04:22:46;6.80;;;2.90;;
76826;SDS011;65788;52.284;20.890;2023-12-20T04:25:13;9.40;;;2.70;;
76826;SDS011;65788;52.284;20.890;2023-12-20T04:27:40;5.50;;;2.60;;
76826;SDS011;65788;52.284;20.890;2023-12-20T04:30:10;4.90;;;2.80;;
76826;SDS011;65788;52.284;20.890;2023-12-20T04:32:37;9.50;;;3.30;;
76826;SDS011;65788;52.284;20.890;2023-12-20T04:35:04;6.20;;;2.70;;
76826;SDS011;65788;52.284;20.890;2023-12-20T04:37:32;7.20;;;3.10;;
76826;SDS011;65788;52.284;20.890;2023-12-20T04:39:59;3.50;;;2.40;;
76826;SDS011;65788;52.284;20.890;2023-12-20T04:42:28;6.00;;;2.90;;
76826;SDS011;65788;52.284;20.890;2023-12-20T04:44:55;5.30;;;2.80;;
76826;SDS011;65788;52.284;20.890;2023-12-20T04:47:22;6.10;;;3.00;;
76826;SDS011;65788;52.284;20.890;2023-12-20T04:49:49;3.70;;;2.40;;
76826;SDS011;65788;52.284;20.890;2023-12-20T04:52:16;5.60;;;3.00;;
76826;SDS011;65788;52.284;20.890;2023-12-20T04:54:43;4.60;;;2.80;;
76826;SDS011;65788;52.284;20.890;2023-12-20T04:57:09;7.60;;;2.80;;
76826;SDS011;65788;52.284;20.890;2023-12-20T04:59:36;4.90;;;2.60;;
76826;SDS011;65788;52.284;20.890;2023-12-20T05:02:04;5.20;;;2.80;;
76826;SDS011;65788;52.284;20.890;2023-12-20T05:04:31;4.90;;;2.70;;
76826;SDS011;65788;52.284;20.890;2023-12-20T05:06:58;5.30;;;2.90;;
76826;SDS011;65788;52.284;20.890;2023-12-20T05:09:25;6.20;;;2.60;;
76826;SDS011;65788;52.284;20.890;2023-12-20T05:11:52;3.90;;;2.40;;
76826;SDS011;65788;52.284;20.890;2023-12-20T05:14:19;4.60;;;2.50;;
76826;SDS011;65788;52.284;20.890;2023-12-20T05:16:46;5.00;;;2.40;;
76826;SDS011;65788;52.284;20.890;2023-12-20T05:19:13;4.70;;;2.70;;
76826;SDS011;65788;52.284;20.890;2023-12-20T05:21:43;4.20;;;2.50;;
76826;SDS011;65788;52.284;20.890;2023-12-20T05:24:10;4.40;;;2.40;;
76826;SDS011;65788;52.284;20.890;2023-12-20T05:26:37;4.50;;;2.60;;
76826;SDS011;65788;52.284;20.890;2023-12-20T05:29:04;4.80;;;2.40;;
76826;SDS011;65788;52.284;20.890;2023-12-20T05:31:31;5.00;;;2.30;;
76826;SDS011;65788;52.284;20.890;2023-12-20T05:33:58;3.80;;;2.80;;
76826;SDS011;65788;52.284;20.890;2023-12-20T05:36:26;6.40;;;2.40;;
76826;SDS011;65788;52.284;20.890;2023-12-20T05:38:53;3.60;;;2.20;;
76826;SDS011;65788;52.284;20.890;2023-12-20T05:41:20;5.00;;;2.40;;
76826;SDS011;65788;52.284;20.890;2023-12-20T05:43:48;4.20;;;2.10;;
76826;SDS011;65788;52.284;20.890;2023-12-20T05:46:16;4.80;;;2.00;;
76826;SDS011;65788;52.284;20.890;2023-12-20T05:48:43;3.80;;;2.10;;
76826;SDS011;65788;52.284;20.890;2023-12-20T05:51:13;4.60;;;2.20;;
76826;SDS011;65788;52.284;20.890;2023-12-20T05:53:39;4.20;;;2.30;;
76826;SDS011;65788;52.284;20.890;2023-12-20T05:56:06;8.90;;;2.60;;
76826;SDS011;65788;52.284;20.890;2023-12-20T05:58:33;3.50;;;2.30;;
76826;SDS011;65788;52.284;20.890;2023-12-20T06:01:00;3.50;;;2.10;;
76826;SDS011;65788;52.284;20.890;2023-12-20T06:03:27;3.90;;;2.10;;
76826;SDS011;65788;52.284;20.890;2023-12-20T06:05:57;3.30;;;2.10;;
76826;SDS011;65788;52.284;20.890;2023-12-20T06:08:24;5.50;;;2.10;;
76826;SDS011;65788;52.284;20.890;2023-12-20T06:10:53;3.90;;;2.10;;
76826;SDS011;65788;52.284;20.890;2023-12-20T06:13:20;3.30;;;2.00;;
76826;SDS011;65788;52.284;20.890;2023-12-20T06:15:47;4.90;;;2.20;;
76826;SDS011;65788;52.284;20.890;2023-12-20T06:18:14;4.20;;;2.00;;
76826;SDS011;65788;52.284;20.890;2023-12-20T06:20:41;4.70;;;2.40;;
76826;SDS011;65788;52.284;20.890;2023-12-20T06:23:07;3.00;;;1.90;;
76826;SDS011;65788;52.284;20.890;2023-12-20T06:25:35;4.50;;;1.80;;
76826;SDS011;65788;52.284;20.890;2023-12-20T06:28:01;3.30;;;1.70;;
76826;SDS011;65788;52.284;20.890;2023-12-20T06:30:29;4.80;;;2.20;;
76826;SDS011;65788;52.284;20.890;2023-12-20T06:32:56;4.10;;;2.00;;
76826;SDS011;65788;52.284;20.890;2023-12-20T06:35:26;4.00;;;2.30;;
76826;SDS011;65788;52.284;20.890;2023-12-20T06:37:53;3.70;;;2.00;;
76826;SDS011;65788;52.284;20.890;2023-12-20T06:40:20;3.00;;;1.80;;
76826;SDS011;65788;52.284;20.890;2023-12-20T06:42:48;4.10;;;1.90;;
76826;SDS011;65788;52.284;20.890;2023-12-20T06:45:14;4.90;;;2.10;;
76826;SDS011;65788;52.284;20.890;2023-12-20T06:47:45;4.30;;;1.80;;
76826;SDS011;65788;52.284;20.890;2023-12-20T06:50:12;3.50;;;1.90;;
76826;SDS011;65788;52.284;20.890;2023-12-20T06:52:39;3.80;;;2.10;;
76826;SDS011;65788;52.284;20.890;2023-12-20T06:55:06;4.20;;;2.10;;
76826;SDS011;65788;52.284;20.890;2023-12-20T06:57:33;3.20;;;2.10;;
76826;SDS011;65788;52.284;20.890;2023-12-20T07:00:03;4.20;;;1.90;;
76826;SDS011;65788;52.284;20.890;2023-12-20T07:02:31;3.30;;;2.10;;
76826;SDS011;65788;52.284;20.890;2023-12-20T07:04:58;3.90;;;1.70;;
76826;SDS011;65788;52.284;20.890;2023-12-20T07:07:25;3.10;;;2.00;;
76826;SDS011;65788;52.284;20.890;2023-12-20T07:09:53;3.70;;;1.80;;
76826;SDS011;65788;52.284;20.890;2023-12-20T07:12:20;3.10;;;1.80;;
76826;SDS011;65788;52.284;20.890;2023-12-20T07:14:46;3.20;;;1.80;;
76826;SDS011;65788;52.284;20.890;2023-12-20T07:17:13;4.70;;;2.00;;
76826;SDS011;65788;52.284;20.890;2023-12-20T07:19:42;3.00;;;1.90;;
76826;SDS011;65788;52.284;20.890;2023-12-20T07:22:09;2.90;;;1.80;;
76826;SDS011;65788;52.284;20.890;2023-12-20T07:24:35;3.50;;;1.90;;
76826;SDS011;65788;52.284;20.890;2023-12-20T07:27:02;3.30;;;1.90;;
76826;SDS011;65788;52.284;20.890;2023-12-20T07:29:30;3.20;;;1.80;;
76826;SDS011;65788;52.284;20.890;2023-12-20T07:31:57;3.20;;;1.80;;
76826;SDS011;65788;52.284;20.890;2023-12-20T07:34:24;3.20;;;1.80;;
76826;SDS011;65788;52.284;20.890;2023-12-20T07:36:51;2.90;;;1.80;;
76826;SDS011;65788;52.284;20.890;2023-12-20T07:39:18;4.20;;;1.70;;
76826;SDS011;65788;52.284;20.890;2023-12-20T07:41:45;4.40;;;1.80;;
76826;SDS011;65788;52.284;20.890;2023-12-20T07:44:12;3.40;;;2.00;;
76826;SDS011;65788;52.284;20.890;2023-12-20T07:46:39;3.80;;;1.70;;
76826;SDS011;65788;52.284;20.890;2023-12-20T07:49:07;4.70;;;1.90;;
76826;SDS011;65788;52.284;20.890;2023-12-20T07:51:35;3.00;;;1.90;;
76826;SDS011;65788;52.284;20.890;2023-12-20T07:54:02;2.70;;;1.80;;
76826;SDS011;65788;52.284;20.890;2023-12-20T07:56:30;3.90;;;2.00;;
76826;SDS011;65788;52.284;20.890;2023-12-20T07:58:57;2.70;;;1.70;;
76826;SDS011;65788;52.284;20.890;2023-12-20T08:01:23;3.50;;;2.00;;
76826;SDS011;65788;52.284;20.890;2023-12-20T08:03:50;3.90;;;2.00;;
76826;SDS011;65788;52.284;20.890;2023-12-20T08:06:18;3.60;;;2.20;;
76826;SDS011;65788;52.284;20.890;2023-12-20T08:08:45;5.20;;;2.10;;
76826;SDS011;65788;52.284;20.890;2023-12-20T08:11:14;9.70;;;2.50;;
76826;SDS011;65788;52.284;20.890;2023-12-20T08:13:44;3.10;;;1.70;;
76826;SDS011;65788;52.284;20.890;2023-12-20T08:16:13;3.50;;;2.10;;
76826;SDS011;65788;52.284;20.890;2023-12-20T08:18:41;5.50;;;2.00;;
76826;SDS011;65788;52.284;20.890;2023-12-20T08:21:09;6.00;;;2.30;;
76826;SDS011;65788;52.284;20.890;2023-12-20T08:23:36;8.40;;;2.80;;
76826;SDS011;65788;52.284;20.890;2023-12-20T08:26:06;8.30;;;2.60;;
76826;SDS011;65788;52.284;20.890;2023-12-20T08:28:33;11.30;;;3.10;;
76826;SDS011;65788;52.284;20.890;2023-12-20T08:31:01;5.80;;;2.60;;
76826;SDS011;65788;52.284;20.890;2023-12-20T08:33:28;6.60;;;2.30;;
76826;SDS011;65788;52.284;20.890;2023-12-20T08:35:54;8.90;;;2.40;;
76826;SDS011;65788;52.284;20.890;2023-12-20T08:38:21;4.90;;;2.30;;
76826;SDS011;65788;52.284;20.890;2023-12-20T08:40:48;6.60;;;2.40;;
76826;SDS011;65788;52.284;20.890;2023-12-20T08:43:15;7.00;;;2.30;;
76826;SDS011;65788;52.284;20.890;2023-12-20T08:45:42;5.60;;;2.60;;
76826;SDS011;65788;52.284;20.890;2023-12-20T08:48:09;8.70;;;2.80;;
76826;SDS011;65788;52.284;20.890;2023-12-20T08:50:36;9.90;;;2.60;;
76826;SDS011;65788;52.284;20.890;2023-12-20T08:53:03;9.00;;;2.70;;
76826;SDS011;65788;52.284;20.890;2023-12-20T08:55:30;9.60;;;2.90;;
76826;SDS011;65788;52.284;20.890;2023-12-20T08:57:58;7.80;;;2.60;;
76826;SDS011;65788;52.284;20.890;2023-12-20T09:00:25;10.50;;;2.70;;
76826;SDS011;65788;52.284;20.890;2023-12-20T09:02:54;7.30;;;2.60;;
76826;SDS011;65788;52.284;20.890;2023-12-20T09:05:21;7.10;;;2.50;;
76826;SDS011;65788;52.284;20.890;2023-12-20T09:07:49;6.50;;;2.60;;
76826;SDS011;65788;52.284;20.890;2023-12-20T09:10:23;11.30;;;2.50;;
76826;SDS011;65788;52.284;20.890;2023-12-20T09:12:53;7.10;;;2.50;;
76826;SDS011;65788;52.284;20.890;2023-12-20T09:15:24;6.90;;;2.60;;
76826;SDS011;65788;52.284;20.890;2023-12-20T09:17:52;7.80;;;2.70;;
76826;SDS011;65788;52.284;20.890;2023-12-20T09:20:19;6.80;;;2.50;;
76826;SDS011;65788;52.284;20.890;2023-12-20T09:22:46;8.40;;;2.80;;
76826;SDS011;65788;52.284;20.890;2023-12-20T09:25:18;8.30;;;3.20;;
76826;SDS011;65788;52.284;20.890;2023-12-20T09:27:48;5.20;;;2.60;;
76826;SDS011;65788;52.284;20.890;2023-12-20T09:30:19;5.90;;;2.80;;
76826;SDS011;65788;52.284;20.890;2023-12-20T09:32:46;6.30;;;2.70;;
76826;SDS011;65788;52.284;20.890;2023-12-20T09:35:13;6.20;;;2.20;;
76826;SDS011;65788;52.284;20.890;2023-12-20T09:37:41;7.00;;;2.80;;
76826;SDS011;65788;52.284;20.890;2023-12-20T09:40:12;9.00;;;2.70;;
76826;SDS011;65788;52.284;20.890;2023-12-20T09:42:57;5.60;;;1.90;;
76826;SDS011;65788;52.284;20.890;2023-12-20T09:45:25;9.50;;;2.80;;
76826;SDS011;65788;52.284;20.890;2023-12-20T09:47:52;4.20;;;2.10;;
76826;SDS011;65788;52.284;20.890;2023-12-20T09:50:23;4.60;;;2.10;;
76826;SDS011;65788;52.284;20.890;2023-12-20T09:52:51;6.00;;;2.20;;
76826;SDS011;65788;52.284;20.890;2023-12-20T09:55:19;8.00;;;2.60;;
76826;SDS011;65788;52.284;20.890;2023-12-20T09:57:47;7.00;;;2.20;;
76826;SDS011;65788;52.284;20.890;2023-12-20T10:00:15;7.70;;;2.20;;
76826;SDS011;65788;52.284;20.890;2023-12-20T10:05:20;5.40;;;1.90;;
76826;SDS011;65788;52.284;20.890;2023-12-20T10:08:04;7.90;;;2.60;;
76826;SDS011;65788;52.284;20.890;2023-12-20T10:10:32;5.30;;;2.10;;
76826;SDS011;65788;52.284;20.890;2023-12-20T10:13:06;7.60;;;1.90;;
76826;SDS011;65788;52.284;20.890;2023-12-20T10:15:35;6.90;;;2.20;;
76826;SDS011;65788;52.284;20.890;2023-12-20T10:18:03;4.20;;;2.50;;
76826;SDS011;65788;52.284;20.890;2023-12-20T10:20:31;4.50;;;2.00;;
76826;SDS011;65788;52.284;20.890;2023-12-20T10:22:59;4.80;;;1.90;;
76826;SDS011;65788;52.284;20.890;2023-12-20T10:25:27;4.60;;;2.10;;
76826;SDS011;65788;52.284;20.890;2023-12-20T10:28:12;7.20;;;2.50;;
76826;SDS011;65788;52.284;20.890;2023-12-20T10:30:41;4.90;;;2.00;;
76826;SDS011;65788;52.284;20.890;2023-12-20T10:33:08;4.10;;;1.90;;
76826;SDS011;65788;52.284;20.890;2023-12-20T10:35:36;6.60;;;2.10;;
76826;SDS011;65788;52.284;20.890;2023-12-20T10:40:34;4.40;;;2.30;;
76826;SDS011;65788;52.284;20.890;2023-12-20T10:43:03;3.90;;;1.80;;
76826;SDS011;65788;52.284;20.890;2023-12-20T10:45:32;4.10;;;2.00;;
76826;SDS011;65788;52.284;20.890;2023-12-20T10:47:59;4.80;;;2.30;;
76826;SDS011;65788;52.284;20.890;2023-12-20T10:50:28;4.60;;;1.80;;
76826;SDS011;65788;52.284;20.890;2023-12-20T10:52:57;3.60;;;2.10;;
76826;SDS011;65788;52.284;20.890;2023-12-20T10:55:25;2.90;;;1.80;;
76826;SDS011;65788;52.284;20.890;2023-12-20T10:57:54;3.60;;;1.80;;
76826;SDS011;65788;52.284;20.890;2023-12-20T11:00:39;3.20;;;1.90;;
76826;SDS011;65788;52.284;20.890;2023-12-20T11:03:10;3.60;;;1.70;;
76826;SDS011;65788;52.284;20.890;2023-12-20T11:05:53;2.70;;;1.70;;
76826;SDS011;65788;52.284;20.890;2023-12-20T11:08:33;4.70;;;1.70;;
76826;SDS011;65788;52.284;20.890;2023-12-20T11:13:40;4.90;;;2.10;;
76826;SDS011;65788;52.284;20.890;2023-12-20T11:16:14;4.00;;;2.00;;
76826;SDS011;65788;52.284;20.890;2023-12-20T11:18:44;4.10;;;2.00;;
76826;SDS011;65788;52.284;20.890;2023-12-20T11:21:14;3.70;;;1.80;;
76826;SDS011;65788;52.284;20.890;2023-12-20T11:26:09;3.10;;;1.70;;
76826;SDS011;65788;52.284;20.890;2023-12-20T11:28:42;4.00;;;1.90;;
76826;SDS011;65788;52.284;20.890;2023-12-20T11:31:10;4.30;;;1.90;;
76826;SDS011;65788;52.284;20.890;2023-12-20T11:33:45;4.50;;;1.90;;
76826;SDS011;65788;52.284;20.890;2023-12-20T11:36:19;4.40;;;2.10;;
76826;SDS011;65788;52.284;20.890;2023-12-20T11:38:58;3.20;;;2.00;;
76826;SDS011;65788;52.284;20.890;2023-12-20T11:41:31;2.70;;;1.60;;
76826;SDS011;65788;52.284;20.890;2023-12-20T11:44:00;3.70;;;1.80;;
76826;SDS011;65788;52.284;20.890;2023-12-20T11:46:27;2.90;;;1.60;;
76826;SDS011;65788;52.284;20.890;2023-12-20T11:48:55;4.60;;;1.90;;
76826;SDS011;65788;52.284;20.890;2023-12-20T11:51:21;4.60;;;1.60;;
76826;SDS011;65788;52.284;20.890;2023-12-20T11:53:52;3.90;;;1.80;;
76826;SDS011;65788;52.284;20.890;2023-12-20T11:56:20;2.70;;;1.50;;
76826;SDS011;65788;52.284;20.890;2023-12-20T11:58:47;4.00;;;1.90;;
76826;SDS011;65788;52.284;20.890;2023-12-20T12:01:15;3.80;;;1.90;;
76826;SDS011;65788;52.284;20.890;2023-12-20T12:03:42;3.70;;;1.90;;
76826;SDS011;65788;52.284;20.890;2023-12-20T12:06:09;3.10;;;1.80;;
76826;SDS011;65788;52.284;20.890;2023-12-20T12:08:36;3.20;;;1.90;;
76826;SDS011;65788;52.284;20.890;2023-12-20T12:11:05;3.00;;;1.50;;
76826;SDS011;65788;52.284;20.890;2023-12-20T12:13:33;3.70;;;1.70;;
76826;SDS011;65788;52.284;20.890;2023-12-20T12:16:00;2.80;;;1.80;;
76826;SDS011;65788;52.284;20.890;2023-12-20T12:18:27;4.10;;;1.60;;
76826;SDS011;65788;52.284;20.890;2023-12-20T12:21:01;4.00;;;1.90;;
76826;SDS011;65788;52.284;20.890;2023-12-20T12:23:30;3.00;;;1.70;;
76826;SDS011;65788;52.284;20.890;2023-12-20T12:25:58;3.20;;;1.70;;
76826;SDS011;65788;52.284;20.890;2023-12-20T12:28:30;3.20;;;1.80;;
76826;SDS011;65788;52.284;20.890;2023-12-20T12:31:13;3.00;;;1.90;;
76826;SDS011;65788;52.284;20.890;2023-12-20T12:33:51;3.60;;;1.80;;
76826;SDS011;65788;52.284;20.890;2023-12-20T12:36:20;3.50;;;1.70;;
76826;SDS011;65788;52.284;20.890;2023-12-20T12:38:48;4.50;;;2.00;;
76826;SDS011;65788;52.284;20.890;2023-12-20T12:41:17;4.10;;;1.90;;
76826;SDS011;65788;52.284;20.890;2023-12-20T12:43:44;3.00;;;1.50;;
76826;SDS011;65788;52.284;20.890;2023-12-20T12:46:12;3.70;;;1.60;;
76826;SDS011;65788;52.284;20.890;2023-12-20T12:48:39;2.60;;;1.50;;
76826;SDS011;65788;52.284;20.890;2023-12-20T12:51:06;2.90;;;1.70;;
76826;SDS011;65788;52.284;20.890;2023-12-20T12:53:38;4.40;;;1.80;;
76826;SDS011;65788;52.284;20.890;2023-12-20T12:56:06;3.60;;;2.10;;
76826;SDS011;65788;52.284;20.890;2023-12-20T12:58:42;3.90;;;2.10;;
76826;SDS011;65788;52.284;20.890;2023-12-20T13:01:09;3.30;;;1.40;;
76826;SDS011;65788;52.284;20.890;2023-12-20T13:03:36;3.00;;;1.90;;
76826;SDS011;65788;52.284;20.890;2023-12-20T13:06:06;4.00;;;2.10;;
76826;SDS011;65788;52.284;20.890;2023-12-20T13:11:02;4.00;;;2.00;;
76826;SDS011;65788;52.284;20.890;2023-12-20T13:13:33;5.20;;;2.10;;
76826;SDS011;65788;52.284;20.890;2023-12-20T13:16:03;3.70;;;1.90;;
76826;SDS011;65788;52.284;20.890;2023-12-20T13:18:31;3.50;;;2.10;;
76826;SDS011;65788;52.284;20.890;2023-12-20T13:20:58;6.90;;;2.10;;
76826;SDS011;65788;52.284;20.890;2023-12-20T13:23:25;4.60;;;1.80;;
76826;SDS011;65788;52.284;20.890;2023-12-20T13:25:52;3.50;;;2.10;;
76826;SDS011;65788;52.284;20.890;2023-12-20T13:28:19;3.00;;;1.60;;
76826;SDS011;65788;52.284;20.890;2023-12-20T13:30:47;3.50;;;2.00;;
76826;SDS011;65788;52.284;20.890;2023-12-20T13:33:14;4.20;;;1.70;;
76826;SDS011;65788;52.284;20.890;2023-12-20T13:35:41;2.90;;;1.80;;
76826;SDS011;65788;52.284;20.890;2023-12-20T13:38:09;3.80;;;2.00;;
76826;SDS011;65788;52.284;20.890;2023-12-20T13:40:39;3.00;;;1.80;;
76826;SDS011;65788;52.284;20.890;2023-12-20T13:43:06;3.40;;;1.90;;
76826;SDS011;65788;52.284;20.890;2023-12-20T13:45:35;4.30;;;2.00;;
76826;SDS011;65788;52.284;20.890;2023-12-20T13:48:03;3.10;;;1.70;;
76826;SDS011;65788;52.284;20.890;2023-12-20T13:50:33;4.70;;;2.10;;
76826;SDS011;65788;52.284;20.890;2023-12-20T13:53:00;2.80;;;1.90;;
76826;SDS011;65788;52.284;20.890;2023-12-20T13:55:32;3.50;;;2.10;;
76826;SDS011;65788;52.284;20.890;2023-12-20T13:58:08;4.10;;;2.20;;
76826;SDS011;65788;52.284;20.890;2023-12-20T14:00:36;4.10;;;2.10;;
76826;SDS011;65788;52.284;20.890;2023-12-20T14:03:06;5.10;;;2.30;;
76826;SDS011;65788;52.284;20.890;2023-12-20T14:05:34;3.20;;;1.90;;
76826;SDS011;65788;52.284;20.890;2023-12-20T14:08:04;3.40;;;2.00;;
76826;SDS011;65788;52.284;20.890;2023-12-20T14:10:32;3.70;;;1.90;;
76826;SDS011;65788;52.284;20.890;2023-12-20T14:12:59;4.10;;;2.10;;
76826;SDS011;65788;52.284;20.890;2023-12-20T14:15:26;4.90;;;2.20;;
76826;SDS011;65788;52.284;20.890;2023-12-20T14:17:53;3.50;;;2.00;;
76826;SDS011;65788;52.284;20.890;2023-12-20T14:20:21;3.80;;;1.90;;
76826;SDS011;65788;52.284;20.890;2023-12-20T14:22:48;3.70;;;2.20;;
76826;SDS011;65788;52.284;20.890;2023-12-20T14:25:15;5.10;;;2.20;;
76826;SDS011;65788;52.284;20.890;2023-12-20T14:27:42;5.10;;;2.20;;
76826;SDS011;65788;52.284;20.890;2023-12-20T14:30:10;3.60;;;1.90;;
76826;SDS011;65788;52.284;20.890;2023-12-20T14:32:37;4.30;;;2.00;;
76826;SDS011;65788;52.284;20.890;2023-12-20T14:35:05;4.20;;;2.00;;
76826;SDS011;65788;52.284;20.890;2023-12-20T14:37:34;3.50;;;2.30;;
76826;SDS011;65788;52.284;20.890;2023-12-20T14:40:06;4.00;;;2.00;;
76826;SDS011;65788;52.284;20.890;2023-12-20T14:42:37;4.20;;;2.10;;
76826;SDS011;65788;52.284;20.890;2023-12-20T14:45:04;3.70;;;2.20;;
76826;SDS011;65788;52.284;20.890;2023-12-20T14:47:31;4.10;;;2.50;;
76826;SDS011;65788;52.284;20.890;2023-12-20T14:50:02;3.90;;;2.00;;
76826;SDS011;65788;52.284;20.890;2023-12-20T14:52:31;4.00;;;2.10;;
76826;SDS011;65788;52.284;20.890;2023-12-20T14:55:00;4.30;;;1.80;;
76826;SDS011;65788;52.284;20.890;2023-12-20T14:57:29;3.70;;;2.20;;